Thayer, IL (62689)

8:42 PM CST on February 07, 2016 (GMT -0600)
Royell Weather Station | | Change Station
CLOSE
Current Station
Personal Weather Station
Location: Virden, IL
Elevation: 676 ft
Nearby Weather Stations

Elev 676 ft 39.50 °N, 89.77 °W | Updated 15 seconds ago

Rain
Rain
38.1 °F
Feels Like 38 °F
N
1.0
Wind Variable Wind from WNW
Gusts 1.0 mph

Today
High -- | Low -- °F
--% Chance of Precip.
Yesterday
High -- | Low -- °F
Precip. -- in
Pressure 29.88 in
Visibility 10.0 miles
Clouds Scattered Clouds 5500 ft
Mostly Cloudy 7000 ft
Overcast 9500 ft
Windchill 38 °F
Dew Point 34 °F
Humidity 85%
Rainfall 0.00 in
Snow Depth Not available.
7:01 AM 5:25 PM
Waning Crescent, 0% visible
METAR KSPI 080152Z 29018KT 10SM SCT055 BKN070 OVC095 06/M01 A2986 RMK AO2 PK WND 28026/0125 SLP116 T00561006
Pressure 29.88 in
Visibility 10.0 miles
Clouds Scattered Clouds 5500 ft
Mostly Cloudy 7000 ft
Overcast 9500 ft
Windchill 38 °F
Dew Point 34 °F
Humidity 85%
Rainfall 0.00 in
Snow Depth Not available.
7:01 AM 5:25 PM
Waning Crescent, 0% visible
METAR KSPI 080152Z 29018KT 10SM SCT055 BKN070 OVC095 06/M01 A2986 RMK AO2 PK WND 28026/0125 SLP116 T00561006

10-Day Weather Forecast

Almanac

Astronomy

Feb. 07, 2016 Rise Set
Actual Time
Civil Twilight
Nautical Twilight
Astronomical Twilight
Moon
Length of Visible Light
Length of Day
Tomorrow will be .
, % of the Moon is Illuminated

Today's Extremes

State Highs State Lows

Community

WunderPhotos

Upload Photos

1,891,373 photos uploaded!

WunderBlog® & News

Nearby

Air Quality

  Air Quality AQ Index Pollutant
Not available.

Snow Depth

Station Depth Elevation

Earthquake Activity

City Distance Mag. Time & Date
Minimum magnitude displayed is 2.5.

Coastal Water Temperatures

Place Temperature

Stations

Nearby Weather Stations

Station Location Temp. Windchill Dew Point Humidity Wind Precip. Elev Updated Type
                   

Watches & Warnings

There are currently no watches in effect.